Time;durP1;ratioP1;P1;durP2;ratioP2;P2;SDS_P1;SDS_P2;PMS_P1;PMS_P2;Temp;Humidity;BMP_temperature;BMP_pressure;BME280_temperature;BME280_humidity;BME280_pressure;Samples;Min_cycle;Max_cycle;Signal;HPM_P1;HPM_P2
2023/10/02 00:02:40;;;;;;;11.00;10.50;;;;;;;;;;5109923;27;20019;-65
2023/10/02 00:05:04;;;;;;;10.50;10.00;;;;;;;;;;5109188;28;20040;-66
2023/10/02 00:07:30;;;;;;;10.70;10.20;;;;;;;;;;5108360;27;20080;-65
2023/10/02 00:09:55;;;;;;;11.00;10.50;;;;;;;;;;5109562;28;20440;-65
2023/10/02 00:12:21;;;;;;;11.05;10.55;;;;;;;;;;5110122;28;20098;-67
2023/10/02 00:14:48;;;;;;;11.10;10.60;;;;;;;;;;5107101;27;20490;-66
2023/10/02 00:17:14;;;;;;;10.85;10.35;;;;;;;;;;5110029;28;21040;-65
2023/10/02 00:19:44;;;;;;;11.07;10.57;;;;;;;;;;5109852;28;20050;-66
2023/10/02 00:25:19;;;;;;;11.10;10.60;;;;;;;;;;5108110;28;20042;-66
2023/10/02 00:27:48;;;;;;;10.68;10.18;;;;;;;;;;5109714;28;20031;-66
2023/10/02 00:30:14;;;;;;;10.88;10.38;;;;;;;;;;5105859;28;20372;-66
2023/10/02 00:32:41;;;;;;;10.85;10.35;;;;;;;;;;5108889;28;20030;-67
2023/10/02 00:35:10;;;;;;;10.70;10.20;;;;;;;;;;5112110;28;20015;-66
2023/10/02 00:37:45;;;;;;;10.80;10.30;;;;;;;;;;5108601;28;20019;-66
2023/10/02 00:40:13;;;;;;;10.68;10.18;;;;;;;;;;5109993;28;20062;-65
2023/10/02 00:42:39;;;;;;;10.65;10.15;;;;;;;;;;5111357;28;20103;-66
2023/10/02 00:45:04;;;;;;;10.68;10.18;;;;;;;;;;5110219;27;20099;-66
2023/10/02 00:47:45;;;;;;;10.80;10.30;;;;;;;;;;5111623;27;20028;-66
2023/10/02 00:50:18;;;;;;;10.90;10.40;;;;;;;;;;5110210;28;20120;-66
2023/10/02 00:52:46;;;;;;;10.90;10.40;;;;;;;;;;5110033;27;20016;-66
2023/10/02 00:55:14;;;;;;;10.73;10.23;;;;;;;;;;5092484;28;20951;-66
2023/10/02 00:57:40;;;;;;;11.05;10.55;;;;;;;;;;5110186;28;20042;-65
2023/10/02 01:00:07;;;;;;;10.75;10.25;;;;;;;;;;5107279;28;20094;-65
2023/10/02 01:02:35;;;;;;;10.20;9.75;;;;;;;;;;5108788;28;20416;-65
2023/10/02 01:05:03;;;;;;;10.77;10.27;;;;;;;;;;5107791;27;20063;-67
2023/10/02 01:07:30;;;;;;;10.55;10.05;;;;;;;;;;5108080;28;20023;-67
2023/10/02 01:10:07;;;;;;;11.00;10.50;;;;;;;;;;5108529;27;20026;-68
2023/10/02 01:12:43;;;;;;;10.85;10.35;;;;;;;;;;5109892;27;20031;-67
2023/10/02 01:15:11;;;;;;;10.77;10.27;;;;;;;;;;5109688;28;20026;-67
2023/10/02 01:17:39;;;;;;;10.55;10.05;;;;;;;;;;5108538;27;20031;-67
2023/10/02 01:20:20;;;;;;;10.80;10.30;;;;;;;;;;5110628;28;20020;-67
2023/10/02 01:22:47;;;;;;;10.80;10.30;;;;;;;;;;5107665;28;20017;-66
2023/10/02 01:25:13;;;;;;;10.77;10.27;;;;;;;;;;5108495;28;20020;-66
2023/10/02 01:27:42;;;;;;;10.45;9.95;;;;;;;;;;5107990;27;20026;-66
2023/10/02 01:30:17;;;;;;;10.75;10.25;;;;;;;;;;5089707;28;20023;-66
2023/10/02 01:35:46;;;;;;;10.73;10.23;;;;;;;;;;5110934;28;20025;-65
2023/10/02 01:38:14;;;;;;;11.20;10.70;;;;;;;;;;5109212;28;20038;-66
2023/10/02 01:40:48;;;;;;;10.95;10.45;;;;;;;;;;5108406;28;20027;-66
2023/10/02 01:43:14;;;;;;;10.95;10.45;;;;;;;;;;5081067;28;20494;-66
2023/10/02 01:45:43;;;;;;;10.90;10.40;;;;;;;;;;5108812;28;20066;-65
2023/10/02 01:48:13;;;;;;;11.98;11.38;;;;;;;;;;5107404;28;20047;-66
2023/10/02 01:50:39;;;;;;;10.82;10.32;;;;;;;;;;5104439;28;20050;-65
2023/10/02 01:53:08;;;;;;;11.10;10.60;;;;;;;;;;5090030;28;20437;-65
2023/10/02 01:55:36;;;;;;;11.00;10.50;;;;;;;;;;5110927;28;20424;-66
2023/10/02 01:58:16;;;;;;;10.90;10.40;;;;;;;;;;5108649;28;20015;-66
2023/10/02 02:00:42;;;;;;;10.88;10.38;;;;;;;;;;5109011;28;20023;-66
2023/10/02 02:03:17;;;;;;;10.98;10.48;;;;;;;;;;5087700;28;20512;-65
2023/10/02 02:05:44;;;;;;;11.00;10.50;;;;;;;;;;5108796;28;20051;-65
2023/10/02 02:08:21;;;;;;;10.75;10.25;;;;;;;;;;5107582;28;20020;-66
2023/10/02 02:10:48;;;;;;;10.98;10.48;;;;;;;;;;5109623;28;20705;-66
2023/10/02 02:13:14;;;;;;;11.02;10.52;;;;;;;;;;5112040;28;20019;-67
2023/10/02 02:15:44;;;;;;;11.07;10.57;;;;;;;;;;5113558;28;20466;-67
2023/10/02 02:18:09;;;;;;;11.00;10.50;;;;;;;;;;5110171;28;20015;-66
2023/10/02 02:20:44;;;;;;;11.07;10.57;;;;;;;;;;5107349;28;20026;-66
2023/10/02 02:23:14;;;;;;;10.80;10.30;;;;;;;;;;5109432;28;20378;-65
2023/10/02 02:25:39;;;;;;;10.88;10.38;;;;;;;;;;5109897;28;20072;-67
2023/10/02 02:28:06;;;;;;;10.90;10.40;;;;;;;;;;5092973;28;20075;-66
2023/10/02 02:30:40;;;;;;;10.98;10.48;;;;;;;;;;5110898;28;20026;-66
2023/10/02 02:33:07;;;;;;;10.77;10.27;;;;;;;;;;5106194;28;20141;-67
2023/10/02 02:35:35;;;;;;;10.60;10.10;;;;;;;;;;5107070;28;20492;-67
2023/10/02 02:38:02;;;;;;;10.70;10.20;;;;;;;;;;5109797;28;20104;-66
2023/10/02 02:40:30;;;;;;;11.10;10.60;;;;;;;;;;5108295;28;20378;-66
2023/10/02 02:42:56;;;;;;;10.82;10.32;;;;;;;;;;5111632;28;20016;-66
2023/10/02 02:45:28;;;;;;;10.50;10.00;;;;;;;;;;5114191;28;20019;-66
2023/10/02 02:48:06;;;;;;;10.90;10.40;;;;;;;;;;5110945;28;20023;-66
2023/10/02 02:50:35;;;;;;;10.82;10.32;;;;;;;;;;5111152;28;20682;-67
2023/10/02 02:55:45;;;;;;;10.85;10.35;;;;;;;;;;5110934;28;20446;-67
2023/10/02 02:58:11;;;;;;;10.95;10.45;;;;;;;;;;5112816;28;20027;-67
2023/10/02 03:00:40;;;;;;;11.18;10.68;;;;;;;;;;5112628;27;20115;-66
2023/10/02 03:03:29;;;;;;;10.85;10.35;;;;;;;;;;5113956;27;20015;-65
2023/10/02 03:05:52;;;;;;;11.35;10.85;;;;;;;;;;5093218;28;20760;-66
2023/10/02 03:08:19;;;;;;;10.85;10.35;;;;;;;;;;5109928;27;20023;-67
2023/10/02 03:10:47;;;;;;;10.98;10.48;;;;;;;;;;5091665;28;20020;-67
2023/10/02 03:13:16;;;;;;;11.32;10.82;;;;;;;;;;5112079;28;20106;-67
2023/10/02 03:15:53;;;;;;;10.93;10.43;;;;;;;;;;5111203;27;20020;-67
2023/10/02 03:18:31;;;;;;;11.10;10.60;;;;;;;;;;5110189;28;20023;-66
2023/10/02 03:21:14;;;;;;;10.60;10.10;;;;;;;;;;5112458;28;20031;-67
2023/10/02 03:23:45;;;;;;;10.90;10.40;;;;;;;;;;5103751;28;20444;-66
2023/10/02 03:26:27;;;;;;;10.80;10.30;;;;;;;;;;5113150;27;20028;-66
2023/10/02 03:29:01;;;;;;;11.13;10.63;;;;;;;;;;5105808;28;20024;-67
2023/10/02 03:31:51;;;;;;;11.32;10.82;;;;;;;;;;5112520;28;20031;-67
2023/10/02 03:35:02;;;;;;;10.60;10.10;;;;;;;;;;5110971;28;20513;-67
2023/10/02 03:37:13;;;;;;;11.63;11.07;;;;;;;;;;5107421;28;20101;-67
2023/10/02 03:39:59;;;;;;;10.60;10.10;;;;;;;;;;5110674;28;20455;-66
2023/10/02 03:42:25;;;;;;;10.70;10.20;;;;;;;;;;5110709;28;20084;-67
2023/10/02 03:44:54;;;;;;;11.00;10.50;;;;;;;;;;5109436;28;20112;-66
2023/10/02 03:47:19;;;;;;;10.90;10.40;;;;;;;;;;5086727;28;20055;-67
2023/10/02 03:49:45;;;;;;;11.10;10.60;;;;;;;;;;5093749;27;20436;-66
2023/10/02 03:52:16;;;;;;;10.63;10.13;;;;;;;;;;5111827;27;20019;-66
2023/10/02 03:54:45;;;;;;;10.82;10.32;;;;;;;;;;5111111;27;20035;-68
2023/10/02 03:59:55;;;;;;;11.43;10.93;;;;;;;;;;5108370;28;20027;-67
2023/10/02 04:02:26;;;;;;;11.23;10.70;;;;;;;;;;5111939;27;20024;-67
2023/10/02 04:04:51;;;;;;;11.35;10.85;;;;;;;;;;5110744;28;20043;-67
2023/10/02 04:07:20;;;;;;;11.70;11.13;;;;;;;;;;5104642;28;20054;-66
2023/10/02 04:09:50;;;;;;;11.13;10.63;;;;;;;;;;5097234;27;20073;-65
2023/10/02 04:12:17;;;;;;;11.18;10.68;;;;;;;;;;5110184;28;20095;-65
2023/10/02 04:14:43;;;;;;;11.57;11.02;;;;;;;;;;5102037;27;20019;-64
2023/10/02 04:17:20;;;;;;;11.63;11.07;;;;;;;;;;5096308;28;20023;-61
2023/10/02 04:20:04;;;;;;;11.00;10.50;;;;;;;;;;5103669;27;20122;-61
2023/10/02 04:22:31;;;;;;;10.95;10.45;;;;;;;;;;5105139;27;20467;-61
2023/10/02 04:25:04;;;;;;;10.85;10.35;;;;;;;;;;5105236;27;20023;-61
2023/10/02 04:32:34;;;;;;;10.57;10.07;;;;;;;;;;5100203;28;20036;-62
2023/10/02 04:35:02;;;;;;;11.40;10.90;;;;;;;;;;5104144;28;20032;-60
2023/10/02 04:37:31;;;;;;;11.45;10.95;;;;;;;;;;5103508;28;20487;-64
2023/10/02 04:42:25;;;;;;;11.43;10.93;;;;;;;;;;5100791;28;21577;-64
2023/10/02 04:44:56;;;;;;;12.07;11.48;;;;;;;;;;5103521;28;20028;-63
2023/10/02 04:47:23;;;;;;;11.55;11.05;;;;;;;;;;5100820;27;20486;-64
2023/10/02 04:55:23;;;;;;;11.80;11.20;;;;;;;;;;5105928;27;20051;-65
2023/10/02 04:57:54;;;;;;;11.15;10.65;;;;;;;;;;5108208;27;20051;-64
2023/10/02 05:00:27;;;;;;;11.23;10.73;;;;;;;;;;5103738;27;20356;-64
2023/10/02 05:03:09;;;;;;;11.20;10.70;;;;;;;;;;5106564;27;20043;-63
2023/10/02 05:05:41;;;;;;;11.63;11.13;;;;;;;;;;5107078;27;20279;-64
2023/10/02 05:08:17;;;;;;;11.32;10.82;;;;;;;;;;5104974;28;20030;-64
2023/10/02 05:10:47;;;;;;;11.48;10.98;;;;;;;;;;5103357;27;20073;-64
2023/10/02 05:13:12;;;;;;;11.90;11.40;;;;;;;;;;5076113;28;20024;-64
2023/10/02 05:16:06;;;;;;;12.25;11.65;;;;;;;;;;5087047;28;20026;-63
2023/10/02 05:18:23;;;;;;;12.35;11.75;;;;;;;;;;5110170;28;20462;-65
2023/10/02 05:20:48;;;;;;;12.07;11.57;;;;;;;;;;5108109;27;20059;-63
2023/10/02 05:23:13;;;;;;;12.32;11.73;;;;;;;;;;5089251;28;20023;-64
2023/10/02 05:25:41;;;;;;;11.80;11.30;;;;;;;;;;5102674;27;20051;-66
2023/10/02 05:28:07;;;;;;;11.88;11.38;;;;;;;;;;5098838;28;20023;-65
2023/10/02 05:30:42;;;;;;;11.65;11.15;;;;;;;;;;5100351;27;20521;-64
2023/10/02 05:33:08;;;;;;;11.75;11.25;;;;;;;;;;5104360;28;20028;-64
2023/10/02 05:35:34;;;;;;;11.80;11.30;;;;;;;;;;5101425;28;20028;-66
2023/10/02 05:37:59;;;;;;;11.90;11.40;;;;;;;;;;5102451;28;20023;-65
2023/10/02 05:43:09;;;;;;;11.90;11.40;;;;;;;;;;5083993;28;20022;-67
2023/10/02 05:45:47;;;;;;;;;;;;;;;;;;5096708;28;20021;-67
2023/10/02 05:48:15;;;;;;;12.00;11.50;;;;;;;;;;5101224;28;19907;-67
2023/10/02 05:50:47;;;;;;;11.93;11.43;;;;;;;;;;5109580;28;20164;-67
2023/10/02 05:53:16;;;;;;;12.07;11.57;;;;;;;;;;5096609;28;20020;-68
2023/10/02 05:55:57;;;;;;;12.00;11.50;;;;;;;;;;5083919;28;20020;-67
2023/10/02 05:58:31;;;;;;;11.85;11.35;;;;;;;;;;5110782;28;20038;-66
2023/10/02 06:01:04;;;;;;;11.90;11.40;;;;;;;;;;5071748;28;20400;-66
2023/10/02 06:03:36;;;;;;;12.07;11.57;;;;;;;;;;5092674;28;20097;-66
2023/10/02 06:06:21;;;;;;;12.15;11.65;;;;;;;;;;5094062;28;20056;-68
2023/10/02 06:08:48;;;;;;;11.98;11.48;;;;;;;;;;5088000;28;20499;-68
2023/10/02 06:11:28;;;;;;;12.18;11.68;;;;;;;;;;5082992;28;20119;-68
2023/10/02 06:13:57;;;;;;;11.85;11.35;;;;;;;;;;5098171;28;20039;-71
2023/10/02 06:16:28;;;;;;;12.25;11.75;;;;;;;;;;5098769;28;20028;-67
2023/10/02 06:19:02;;;;;;;11.88;11.38;;;;;;;;;;5105302;28;20209;-64
2023/10/02 06:21:30;;;;;;;12.38;11.77;;;;;;;;;;5105434;28;20016;-65
2023/10/02 06:23:56;;;;;;;12.23;11.73;;;;;;;;;;5102117;27;20403;-64
2023/10/02 06:26:29;;;;;;;12.48;11.88;;;;;;;;;;5082021;27;20088;-66
2023/10/02 06:29:13;;;;;;;11.97;11.47;;;;;;;;;;5100869;27;20430;-67
2023/10/02 06:31:41;;;;;;;;;;;;;;;;;;5100397;27;20111;-66
2023/10/02 06:34:08;;;;;;;12.00;11.50;;;;;;;;;;5099044;27;19918;-66
2023/10/02 06:36:45;;;;;;;12.02;11.52;;;;;;;;;;5099311;28;20503;-66
2023/10/02 06:39:15;;;;;;;12.10;11.60;;;;;;;;;;5098225;27;20032;-66
2023/10/02 06:41:40;;;;;;;11.95;11.45;;;;;;;;;;5101380;27;20418;-65
2023/10/02 06:44:14;;;;;;;12.05;11.55;;;;;;;;;;5101505;27;20031;-65
2023/10/02 06:46:52;;;;;;;12.15;11.65;;;;;;;;;;5105332;28;20028;-64
2023/10/02 06:49:17;;;;;;;12.32;11.82;;;;;;;;;;5102101;27;20146;-67
2023/10/02 06:51:49;;;;;;;11.90;11.40;;;;;;;;;;5102845;27;20603;-67
2023/10/02 06:54:15;;;;;;;11.93;11.43;;;;;;;;;;5098883;27;20029;-67
2023/10/02 06:56:42;;;;;;;12.18;11.68;;;;;;;;;;5105739;27;20387;-65
2023/10/02 06:59:09;;;;;;;12.38;11.85;;;;;;;;;;5096877;27;20060;-67
2023/10/02 07:01:35;;;;;;;12.20;11.70;;;;;;;;;;5102830;27;20024;-66
2023/10/02 07:04:09;;;;;;;12.38;11.88;;;;;;;;;;5102286;27;20057;-66
2023/10/02 07:06:38;;;;;;;12.18;11.68;;;;;;;;;;5103811;27;20050;-67
2023/10/02 07:09:13;;;;;;;12.15;11.65;;;;;;;;;;5106769;27;20070;-68
2023/10/02 07:11:40;;;;;;;12.02;11.52;;;;;;;;;;5104666;27;20027;-66
2023/10/02 07:14:06;;;;;;;12.00;11.50;;;;;;;;;;5105111;27;20051;-68
2023/10/02 07:16:32;;;;;;;11.90;11.40;;;;;;;;;;5087257;28;20531;-67
2023/10/02 07:18:58;;;;;;;12.20;11.70;;;;;;;;;;5109918;27;20029;-66
2023/10/02 07:21:25;;;;;;;11.93;11.43;;;;;;;;;;5099481;27;20591;-66
2023/10/02 07:23:50;;;;;;;11.88;11.38;;;;;;;;;;5097498;27;20038;-68
2023/10/02 07:26:19;;;;;;;12.25;11.75;;;;;;;;;;5093355;27;20019;-68
2023/10/02 07:28:50;;;;;;;11.90;11.40;;;;;;;;;;5103523;27;20028;-67
2023/10/02 07:31:22;;;;;;;12.07;11.57;;;;;;;;;;5087391;27;20028;-66
2023/10/02 07:33:48;;;;;;;12.10;11.60;;;;;;;;;;5102789;27;20035;-66
2023/10/02 07:36:16;;;;;;;12.07;11.57;;;;;;;;;;5097498;28;20038;-64
2023/10/02 07:38:42;;;;;;;12.13;11.52;;;;;;;;;;5099571;27;20268;-64
2023/10/02 07:41:23;;;;;;;12.10;11.60;;;;;;;;;;5104614;27;20016;-65
2023/10/02 07:43:48;;;;;;;12.10;11.60;;;;;;;;;;5098081;28;20066;-65
2023/10/02 07:46:21;;;;;;;12.18;11.68;;;;;;;;;;5104143;27;20104;-65
2023/10/02 07:48:57;;;;;;;11.93;11.43;;;;;;;;;;5107566;27;20024;-69
2023/10/02 07:51:30;;;;;;;12.20;11.70;;;;;;;;;;5096279;27;20024;-68
2023/10/02 07:53:58;;;;;;;12.03;11.53;;;;;;;;;;5080588;28;20050;-66
2023/10/02 07:56:24;;;;;;;12.30;11.80;;;;;;;;;;5100646;27;20282;-66
2023/10/02 07:58:55;;;;;;;12.50;11.90;;;;;;;;;;5104497;27;20471;-70
2023/10/02 08:01:27;;;;;;;12.00;11.50;;;;;;;;;;5105156;27;20019;-72
2023/10/02 08:03:55;;;;;;;12.00;11.50;;;;;;;;;;5108305;27;20023;-70
2023/10/02 08:06:22;;;;;;;12.25;11.75;;;;;;;;;;5099617;27;20511;-65
2023/10/02 08:11:35;;;;;;;11.90;11.40;;;;;;;;;;5096174;28;20039;-65
2023/10/02 08:14:01;;;;;;;11.88;11.38;;;;;;;;;;5094208;28;20036;-69
2023/10/02 08:16:26;;;;;;;11.90;11.40;;;;;;;;;;5102228;28;20012;-68
2023/10/02 08:18:58;;;;;;;12.00;11.50;;;;;;;;;;5101143;27;20022;-68
2023/10/02 08:21:46;;;;;;;11.98;11.48;;;;;;;;;;5098180;27;20024;-67
2023/10/02 08:24:12;;;;;;;11.65;11.15;;;;;;;;;;5108381;27;20023;-66
2023/10/02 08:26:40;;;;;;;11.95;11.45;;;;;;;;;;5102507;27;20081;-66
2023/10/02 08:29:07;;;;;;;11.90;11.40;;;;;;;;;;5099294;27;20016;-66
2023/10/02 08:31:33;;;;;;;12.45;11.90;;;;;;;;;;5091132;27;20024;-68
2023/10/02 08:34:05;;;;;;;12.05;11.55;;;;;;;;;;5084931;28;20031;-71
2023/10/02 08:36:31;;;;;;;11.95;11.45;;;;;;;;;;5090313;27;20015;-67
2023/10/02 08:38:59;;;;;;;11.95;11.45;;;;;;;;;;5103668;27;20613;-68
2023/10/02 08:41:28;;;;;;;11.95;11.45;;;;;;;;;;5100236;27;20028;-65
2023/10/02 08:43:54;;;;;;;12.32;11.80;;;;;;;;;;5097730;27;20061;-64
2023/10/02 08:46:21;;;;;;;13.38;12.77;;;;;;;;;;5097707;27;20032;-66
2023/10/02 08:48:56;;;;;;;13.00;12.40;;;;;;;;;;5105377;27;20024;-64
2023/10/02 08:51:32;;;;;;;12.80;12.20;;;;;;;;;;5086848;28;20034;-65
2023/10/02 08:54:04;;;;;;;12.10;11.60;;;;;;;;;;5095697;28;20032;-66
2023/10/02 08:56:48;;;;;;;12.18;11.68;;;;;;;;;;5095564;27;20059;-68
2023/10/02 08:59:15;;;;;;;13.05;12.45;;;;;;;;;;5097540;27;20016;-64
2023/10/02 09:01:41;;;;;;;12.38;11.82;;;;;;;;;;5099246;27;20102;-64
2023/10/02 09:07:17;;;;;;;12.73;12.13;;;;;;;;;;5081309;28;20478;-64
2023/10/02 09:09:46;;;;;;;12.30;11.70;;;;;;;;;;5100059;27;20411;-65
2023/10/02 09:12:15;;;;;;;12.98;12.38;;;;;;;;;;5098814;28;20023;-67
2023/10/02 09:14:41;;;;;;;13.13;12.52;;;;;;;;;;5100578;27;20028;-66
2023/10/02 09:20:03;;;;;;;12.80;12.20;;;;;;;;;;5101059;27;20687;-67
2023/10/02 09:22:29;;;;;;;12.35;11.75;;;;;;;;;;5098097;28;20035;-66
2023/10/02 09:25:09;;;;;;;12.77;12.18;;;;;;;;;;5097669;27;20088;-65
2023/10/02 09:27:41;;;;;;;12.30;11.75;;;;;;;;;;5106507;27;20027;-65
2023/10/02 09:30:20;;;;;;;12.48;11.88;;;;;;;;;;5089709;28;20114;-67
2023/10/02 09:32:49;;;;;;;12.63;12.02;;;;;;;;;;5098787;28;20035;-65
2023/10/02 09:35:23;;;;;;;12.45;11.85;;;;;;;;;;5099534;27;20032;-65
2023/10/02 09:37:56;;;;;;;12.00;11.50;;;;;;;;;;5097524;28;20092;-64
2023/10/02 09:40:27;;;;;;;12.13;11.63;;;;;;;;;;5100606;28;20031;-64
2023/10/02 09:43:00;;;;;;;13.00;12.40;;;;;;;;;;5095827;27;20038;-64
2023/10/02 09:45:37;;;;;;;12.23;11.70;;;;;;;;;;5092364;28;20135;-64
2023/10/02 09:48:46;;;;;;;12.63;12.02;;;;;;;;;;5105959;28;20462;-65
2023/10/02 09:50:54;;;;;;;12.55;11.95;;;;;;;;;;5097206;28;20067;-65
2023/10/02 09:53:20;;;;;;;12.02;11.52;;;;;;;;;;5076763;28;20047;-68
2023/10/02 09:56:06;;;;;;;13.25;12.65;;;;;;;;;;5097518;28;20015;-65
2023/10/02 09:58:37;;;;;;;12.40;11.80;;;;;;;;;;5100604;28;20031;-65
2023/10/02 10:01:34;;;;;;;12.40;11.80;;;;;;;;;;5097385;28;20429;-66
2023/10/02 10:03:59;;;;;;;12.70;12.10;;;;;;;;;;5098845;28;20422;-64
2023/10/02 10:06:28;;;;;;;14.48;13.77;;;;;;;;;;5095513;28;20058;-66
2023/10/02 10:09:18;;;;;;;11.93;11.43;;;;;;;;;;5100771;28;20015;-65
2023/10/02 10:11:39;;;;;;;11.73;11.23;;;;;;;;;;5099405;28;20055;-65
2023/10/02 10:14:35;;;;;;;11.77;11.27;;;;;;;;;;5105470;28;20097;-65
2023/10/02 10:17:03;;;;;;;12.10;11.57;;;;;;;;;;5093394;28;20104;-65
2023/10/02 10:19:31;;;;;;;11.23;10.73;;;;;;;;;;5105642;28;20043;-65
2023/10/02 10:21:57;;;;;;;12.50;11.90;;;;;;;;;;5098975;28;20073;-63
2023/10/02 10:27:43;;;;;;;12.05;11.55;;;;;;;;;;5086848;28;20039;-66
2023/10/02 10:32:47;;;;;;;12.25;11.68;;;;;;;;;;5095260;28;20026;-70
2023/10/02 10:35:31;;;;;;;12.73;12.13;;;;;;;;;;5096987;28;20020;-67
2023/10/02 10:37:56;;;;;;;13.40;12.80;;;;;;;;;;5086055;28;20564;-68
2023/10/02 10:41:23;;;;;;;12.80;12.20;;;;;;;;;;5098703;28;20372;-66
2023/10/02 10:43:44;;;;;;;12.45;11.85;;;;;;;;;;5080664;28;20048;-63
2023/10/02 10:46:19;;;;;;;12.90;12.30;;;;;;;;;;5097247;28;20115;-65
2023/10/02 10:48:53;;;;;;;12.50;11.90;;;;;;;;;;5097743;28;20499;-69
2023/10/02 10:51:21;;;;;;;12.63;12.02;;;;;;;;;;5101688;28;20073;-68
2023/10/02 10:53:47;;;;;;;12.20;11.68;;;;;;;;;;5104361;28;20027;-70
2023/10/02 10:56:19;;;;;;;12.98;12.38;;;;;;;;;;5099471;28;20015;-67
2023/10/02 10:58:47;;;;;;;12.30;11.73;;;;;;;;;;5103053;28;20024;-69
2023/10/02 11:01:16;;;;;;;11.93;11.43;;;;;;;;;;5102998;27;20016;-68
2023/10/02 11:03:42;;;;;;;12.43;11.82;;;;;;;;;;5099687;27;20019;-66
2023/10/02 11:06:10;;;;;;;12.38;11.77;;;;;;;;;;5082974;28;20051;-67
2023/10/02 11:08:37;;;;;;;11.70;11.20;;;;;;;;;;5082731;28;20032;-66
2023/10/02 11:11:04;;;;;;;12.05;11.55;;;;;;;;;;5080745;28;20093;-69
2023/10/02 11:13:50;;;;;;;11.63;11.13;;;;;;;;;;5060935;28;20069;-71
2023/10/02 11:16:20;;;;;;;12.77;12.18;;;;;;;;;;5079867;28;20013;-70
2023/10/02 11:19:10;;;;;;;11.93;11.43;;;;;;;;;;5078826;28;20013;-72
2023/10/02 11:21:45;;;;;;;12.07;11.52;;;;;;;;;;5077671;28;20023;-69
2023/10/02 11:24:23;;;;;;;12.25;11.65;;;;;;;;;;5079418;28;20050;-69
2023/10/02 11:26:51;;;;;;;11.93;11.43;;;;;;;;;;5083045;28;20036;-69
2023/10/02 11:29:20;;;;;;;11.40;10.90;;;;;;;;;;5076765;28;20436;-67
2023/10/02 11:31:56;;;;;;;11.68;11.18;;;;;;;;;;5067416;28;20031;-70
2023/10/02 11:34:21;;;;;;;11.98;11.48;;;;;;;;;;5079084;28;20043;-70
2023/10/02 11:36:53;;;;;;;13.75;13.15;;;;;;;;;;5075454;28;20020;-70
2023/10/02 11:39:27;;;;;;;12.35;11.75;;;;;;;;;;5080696;28;20036;-70
2023/10/02 11:41:52;;;;;;;12.07;11.57;;;;;;;;;;5085015;28;20012;-71
2023/10/02 11:44:18;;;;;;;12.85;12.25;;;;;;;;;;5075600;28;20052;-68
2023/10/02 11:46:43;;;;;;;11.85;11.35;;;;;;;;;;5081023;28;20213;-67
2023/10/02 11:49:10;;;;;;;10.93;10.43;;;;;;;;;;5083360;28;20260;-66
2023/10/02 11:51:36;;;;;;;11.93;11.43;;;;;;;;;;5079599;28;20598;-67
2023/10/02 11:54:05;;;;;;;12.35;11.75;;;;;;;;;;5080328;28;20032;-68
2023/10/02 11:56:31;;;;;;;11.93;11.43;;;;;;;;;;5080604;28;20040;-68
2023/10/02 11:58:58;;;;;;;12.35;11.75;;;;;;;;;;5079834;28;20569;-67
2023/10/02 12:01:24;;;;;;;11.60;11.10;;;;;;;;;;5060627;28;20083;-68
2023/10/02 12:03:50;;;;;;;11.88;11.38;;;;;;;;;;5086158;28;20024;-68
2023/10/02 12:06:19;;;;;;;12.35;11.75;;;;;;;;;;5078168;28;20056;-67
2023/10/02 12:08:44;;;;;;;12.40;11.80;;;;;;;;;;5084536;28;20395;-67
2023/10/02 12:11:12;;;;;;;12.00;11.50;;;;;;;;;;5084018;28;20030;-67
2023/10/02 12:13:37;;;;;;;11.48;10.98;;;;;;;;;;5085277;28;20113;-69
2023/10/02 12:16:02;;;;;;;12.57;11.98;;;;;;;;;;5079051;28;20052;-70
2023/10/02 12:18:28;;;;;;;12.75;12.15;;;;;;;;;;5084171;28;20032;-68
2023/10/02 12:20:56;;;;;;;11.55;11.05;;;;;;;;;;5079287;28;20698;-69
2023/10/02 12:23:22;;;;;;;12.10;11.60;;;;;;;;;;5082825;28;20131;-68
2023/10/02 12:25:48;;;;;;;12.10;11.60;;;;;;;;;;5083979;28;20107;-68
2023/10/02 12:28:13;;;;;;;11.85;11.35;;;;;;;;;;5075992;28;20395;-68
2023/10/02 12:30:39;;;;;;;12.57;11.98;;;;;;;;;;5063376;28;20119;-66
2023/10/02 12:33:04;;;;;;;11.63;11.13;;;;;;;;;;5078325;28;20111;-68
2023/10/02 12:35:40;;;;;;;11.60;11.10;;;;;;;;;;5054986;28;20036;-65
2023/10/02 12:38:07;;;;;;;12.93;12.32;;;;;;;;;;5079295;28;20107;-70
2023/10/02 12:40:33;;;;;;;12.05;11.55;;;;;;;;;;5065476;28;20129;-68
2023/10/02 12:43:00;;;;;;;12.13;11.57;;;;;;;;;;5078783;28;20109;-67
2023/10/02 12:45:26;;;;;;;12.07;11.55;;;;;;;;;;5077395;28;20110;-69
2023/10/02 12:47:55;;;;;;;12.30;11.70;;;;;;;;;;5084094;28;20063;-68
2023/10/02 12:50:20;;;;;;;12.00;11.50;;;;;;;;;;5067513;28;20032;-65
2023/10/02 12:52:46;;;;;;;11.75;11.25;;;;;;;;;;5065387;28;20039;-68
2023/10/02 12:55:11;;;;;;;11.90;11.40;;;;;;;;;;5082350;28;20352;-68
2023/10/02 12:57:37;;;;;;;12.20;11.65;;;;;;;;;;5062698;28;20047;-70
2023/10/02 13:00:02;;;;;;;11.38;10.88;;;;;;;;;;5076699;28;20510;-69
2023/10/02 13:02:28;;;;;;;11.80;11.30;;;;;;;;;;5074837;28;20021;-72
2023/10/02 13:04:54;;;;;;;11.52;11.02;;;;;;;;;;5074324;28;20048;-71
2023/10/02 13:07:20;;;;;;;11.68;11.18;;;;;;;;;;5064933;28;20036;-73
2023/10/02 13:09:46;;;;;;;11.77;11.27;;;;;;;;;;5077171;28;20071;-68
2023/10/02 13:12:11;;;;;;;11.82;11.32;;;;;;;;;;5081480;28;20016;-66
2023/10/02 13:14:37;;;;;;;12.45;11.88;;;;;;;;;;5076535;28;20024;-67
2023/10/02 13:17:03;;;;;;;11.60;11.10;;;;;;;;;;5083043;28;20493;-65
2023/10/02 13:19:28;;;;;;;11.48;10.98;;;;;;;;;;5061805;28;20028;-63
2023/10/02 13:21:53;;;;;;;12.20;11.65;;;;;;;;;;5056428;28;20075;-65
2023/10/02 13:24:23;;;;;;;11.82;11.32;;;;;;;;;;5083077;28;20059;-67
2023/10/02 13:26:50;;;;;;;12.02;11.52;;;;;;;;;;5078123;28;20472;-66
2023/10/02 13:29:16;;;;;;;12.05;11.52;;;;;;;;;;5082409;28;20511;-66
2023/10/02 13:31:41;;;;;;;11.65;11.15;;;;;;;;;;5082820;28;20028;-65
2023/10/02 13:34:06;;;;;;;11.93;11.43;;;;;;;;;;5080404;28;20032;-66
2023/10/02 13:36:33;;;;;;;11.68;11.18;;;;;;;;;;5082533;28;20016;-66
2023/10/02 13:38:59;;;;;;;11.80;11.30;;;;;;;;;;5087161;28;20012;-67
2023/10/02 13:41:25;;;;;;;11.82;11.32;;;;;;;;;;5083623;28;20031;-66
2023/10/02 13:43:55;;;;;;;11.85;11.35;;;;;;;;;;5080834;28;20407;-64
2023/10/02 13:46:22;;;;;;;12.07;11.57;;;;;;;;;;5080601;28;20036;-66
2023/10/02 13:48:47;;;;;;;11.93;11.43;;;;;;;;;;5080326;28;20475;-67
2023/10/02 13:51:13;;;;;;;12.27;11.68;;;;;;;;;;5078021;28;20031;-65
2023/10/02 13:53:40;;;;;;;11.63;11.13;;;;;;;;;;5079681;28;20188;-67
2023/10/02 13:56:25;;;;;;;11.82;11.32;;;;;;;;;;5081758;28;20054;-66
2023/10/02 13:58:50;;;;;;;11.50;11.00;;;;;;;;;;5085661;28;20475;-67
2023/10/02 14:01:19;;;;;;;11.60;11.10;;;;;;;;;;5093908;28;20056;-64
2023/10/02 14:03:45;;;;;;;11.88;11.38;;;;;;;;;;5082298;28;20446;-65
2023/10/02 14:06:12;;;;;;;11.88;11.38;;;;;;;;;;5095233;28;20506;-65
2023/10/02 14:08:39;;;;;;;11.90;11.40;;;;;;;;;;5097648;28;20047;-65
2023/10/02 14:11:05;;;;;;;11.85;11.35;;;;;;;;;;5088929;28;20034;-65
2023/10/02 14:13:31;;;;;;;11.63;11.13;;;;;;;;;;5103049;28;20035;-65
2023/10/02 14:16:03;;;;;;;11.90;11.40;;;;;;;;;;5097230;28;20020;-66
2023/10/02 14:18:28;;;;;;;11.68;11.18;;;;;;;;;;5096189;28;20683;-68
2023/10/02 14:21:00;;;;;;;11.70;11.20;;;;;;;;;;5085976;28;20023;-65
2023/10/02 14:23:28;;;;;;;12.90;12.30;;;;;;;;;;5087511;28;20179;-67
2023/10/02 14:25:54;;;;;;;11.80;11.30;;;;;;;;;;5101201;28;20022;-70
2023/10/02 14:28:20;;;;;;;12.13;11.57;;;;;;;;;;5091299;28;20078;-65
2023/10/02 14:30:45;;;;;;;12.25;11.65;;;;;;;;;;5099171;28;20051;-65
2023/10/02 14:33:10;;;;;;;12.40;11.80;;;;;;;;;;5095919;28;20020;-66
2023/10/02 14:35:36;;;;;;;12.27;11.68;;;;;;;;;;5094067;28;20017;-66
2023/10/02 14:38:03;;;;;;;14.30;13.60;;;;;;;;;;5093597;27;20021;-66
2023/10/02 14:40:33;;;;;;;12.52;11.93;;;;;;;;;;5109260;27;20020;-67
2023/10/02 14:43:00;;;;;;;12.52;11.93;;;;;;;;;;5109166;27;20019;-66
2023/10/02 14:45:26;;;;;;;11.73;11.23;;;;;;;;;;5099502;28;20027;-66
2023/10/02 14:47:59;;;;;;;12.30;11.70;;;;;;;;;;5099999;27;20028;-66
2023/10/02 14:50:25;;;;;;;12.88;12.27;;;;;;;;;;5099398;27;20027;-70
2023/10/02 14:52:52;;;;;;;12.50;11.90;;;;;;;;;;5087814;28;20031;-70
2023/10/02 14:55:18;;;;;;;11.43;10.93;;;;;;;;;;5071703;28;20028;-70
2023/10/02 14:57:45;;;;;;;12.27;11.68;;;;;;;;;;5107582;27;20024;-68
2023/10/02 15:00:11;;;;;;;13.80;13.18;;;;;;;;;;5090840;27;20032;-65
2023/10/02 15:02:37;;;;;;;11.45;10.95;;;;;;;;;;5101704;27;20015;-66
2023/10/02 15:05:02;;;;;;;11.98;11.48;;;;;;;;;;5106970;27;20051;-65
2023/10/02 15:07:29;;;;;;;11.65;11.15;;;;;;;;;;5108938;27;20028;-65
2023/10/02 15:09:55;;;;;;;12.38;11.77;;;;;;;;;;5095745;28;20435;-64
2023/10/02 15:12:21;;;;;;;11.48;10.98;;;;;;;;;;5100036;27;20032;-65
2023/10/02 15:14:47;;;;;;;11.45;10.95;;;;;;;;;;5098966;28;20039;-65
2023/10/02 15:17:12;;;;;;;12.95;12.35;;;;;;;;;;5091173;27;20024;-68